createdAt,value
2019-01-15T00:01:40.344Z,42.50
2019-01-15T00:04:10.184Z,41.77
2019-01-15T00:06:40.240Z,44.90
2019-01-15T00:09:10.342Z,46.03
2019-01-15T00:11:40.176Z,46.17
2019-01-15T00:14:10.124Z,45.67
2019-01-15T00:16:39.929Z,45.47
2019-01-15T00:19:09.653Z,43.50
2019-01-15T00:21:39.397Z,43.93
2019-01-15T00:24:09.329Z,44.60
2019-01-15T00:26:39.153Z,46.30
2019-01-15T00:29:09.099Z,47.20
2019-01-15T00:31:38.920Z,46.20
2019-01-15T00:34:10.327Z,43.13
2019-01-15T00:36:41.730Z,42.67
2019-01-15T00:39:11.576Z,42.77
2019-01-15T00:41:41.409Z,41.00
2019-01-15T00:44:11.124Z,44.27
2019-01-15T00:46:41.095Z,45.47
2019-01-15T00:49:10.701Z,43.73
2019-01-15T00:51:40.318Z,47.50
2019-01-15T00:54:10.154Z,45.80
2019-01-15T00:56:40.075Z,47.90
2019-01-15T00:59:09.908Z,43.93
2019-01-15T01:01:39.721Z,42.73
2019-01-15T01:04:09.470Z,42.33
2019-01-15T01:06:39.401Z,41.23
2019-01-15T01:09:10.775Z,39.07
2019-01-15T01:11:40.677Z,38.87
2019-01-15T01:14:10.424Z,40.90
2019-01-15T01:16:40.237Z,41.30
2019-01-15T01:19:10.063Z,42.67
2019-01-15T01:21:39.897Z,43.70
2019-01-15T01:24:09.848Z,45.57
2019-01-15T01:26:39.668Z,42.63
2019-01-15T01:29:09.379Z,38.93
2019-01-15T01:31:39.420Z,39.23
2019-01-15T01:34:09.376Z,36.03
2019-01-15T01:36:39.064Z,38.90
2019-01-15T01:39:09.234Z,37.80
2019-01-15T01:41:39.144Z,37.60
2019-01-15T01:44:09.100Z,41.40
2019-01-15T01:46:38.704Z,40.67
2019-01-15T01:49:08.538Z,39.37
2019-01-15T01:51:38.355Z,38.33
2019-01-15T01:54:08.119Z,38.43
2019-01-15T01:56:37.823Z,36.30
2019-01-15T01:59:07.556Z,34.87
2019-01-15T02:01:37.480Z,33.30
2019-01-15T02:04:07.191Z,34.10
2019-01-15T02:06:38.396Z,32.87
2019-01-15T02:09:09.319Z,31.00
2019-01-15T02:11:39.039Z,31.33
2019-01-15T02:14:08.885Z,27.50
2019-01-15T02:16:38.800Z,27.33
2019-01-15T02:19:08.548Z,29.20
2019-01-15T02:21:38.154Z,26.07
2019-01-15T02:24:07.979Z,25.00
2019-01-15T02:26:37.816Z,25.17
2019-01-15T02:29:07.659Z,25.87
2019-01-15T02:31:37.490Z,24.80
2019-01-15T02:34:07.309Z,23.97
2019-01-15T02:36:37.138Z,24.70
2019-01-15T02:39:07.688Z,24.60
2019-01-15T02:41:37.604Z,26.20
2019-01-15T02:44:07.235Z,25.27
2019-01-15T02:46:37.234Z,25.57
2019-01-15T02:49:07.019Z,26.07
2019-01-15T02:51:36.947Z,26.30
2019-01-15T02:54:06.742Z,24.13
2019-01-15T02:56:36.406Z,24.00
2019-01-15T02:59:06.012Z,23.93
2019-01-15T03:01:35.834Z,21.90
2019-01-15T03:04:05.581Z,23.97
2019-01-15T03:06:35.619Z,21.60
2019-01-15T03:09:07.876Z,22.00
2019-01-15T03:11:37.712Z,20.73
2019-01-15T03:14:07.439Z,20.90
2019-01-15T03:16:37.263Z,20.50
2019-01-15T03:19:07.218Z,18.73
2019-01-15T03:21:37.044Z,18.57
2019-01-15T03:24:06.770Z,18.03
2019-01-15T03:26:36.600Z,18.17
2019-01-15T03:29:06.520Z,17.87
2019-01-15T03:31:36.474Z,17.10
2019-01-15T03:34:05.977Z,15.03
2019-01-15T03:36:35.693Z,15.43
2019-01-15T03:39:07.863Z,14.40
2019-01-15T03:41:37.727Z,15.20
2019-01-15T03:44:07.744Z,13.47
2019-01-15T03:46:37.476Z,13.10
2019-01-15T03:49:07.300Z,12.23
2019-01-15T03:51:36.898Z,11.90
2019-01-15T03:54:06.633Z,11.30
2019-01-15T03:56:36.285Z,11.37
2019-01-15T03:59:05.997Z,11.23
2019-01-15T04:01:35.638Z,11.03
2019-01-15T04:04:05.556Z,10.80
2019-01-15T04:06:35.596Z,9.43
2019-01-15T04:09:07.147Z,9.60
2019-01-15T04:11:36.781Z,8.90
2019-01-15T04:14:06.410Z,10.00
2019-01-15T04:16:36.241Z,8.73
2019-01-15T04:19:06.068Z,8.33
2019-01-15T04:21:36.001Z,8.40
2019-01-15T04:24:05.731Z,9.37
2019-01-15T04:26:35.365Z,9.20
2019-01-15T04:29:05.284Z,8.50
2019-01-15T04:31:34.904Z,9.53
2019-01-15T04:34:05.556Z,10.30
2019-01-15T04:36:35.385Z,8.30
2019-01-15T04:39:07.172Z,7.53
2019-01-15T04:41:36.783Z,7.87
2019-01-15T04:44:06.499Z,6.43
2019-01-15T04:46:36.336Z,7.50
2019-01-15T04:49:06.064Z,6.73
2019-01-15T04:51:35.814Z,6.03
2019-01-15T04:54:06.498Z,6.60
2019-01-15T04:56:36.485Z,6.10
2019-01-15T04:59:06.315Z,6.10
2019-01-15T05:01:36.056Z,5.43
2019-01-15T05:04:05.632Z,5.93
2019-01-15T05:06:35.408Z,7.00
2019-01-15T05:09:07.451Z,8.37
2019-01-15T05:11:37.204Z,9.27
2019-01-15T05:14:06.999Z,5.40
2019-01-15T05:16:36.558Z,5.00
2019-01-15T05:19:06.277Z,5.43
2019-01-15T05:21:35.913Z,4.63
2019-01-15T05:24:05.661Z,4.77
2019-01-15T05:26:35.688Z,5.20
2019-01-15T05:29:05.589Z,4.77
2019-01-15T05:31:35.528Z,4.80
2019-01-15T05:34:05.250Z,4.73
2019-01-15T05:36:34.872Z,5.43
2019-01-15T05:39:06.246Z,4.60
2019-01-15T05:41:35.968Z,5.33
2019-01-15T05:44:05.801Z,6.73
2019-01-15T05:46:35.526Z,5.13
2019-01-15T05:49:05.456Z,4.30
2019-01-15T05:51:37.632Z,4.30
2019-01-15T05:54:07.481Z,4.37
2019-01-15T05:56:37.304Z,4.27
2019-01-15T05:59:07.118Z,4.17
2019-01-15T06:01:37.025Z,4.03
2019-01-15T06:04:06.684Z,4.93
2019-01-15T06:06:36.400Z,3.83
2019-01-15T06:09:09.512Z,4.33
2019-01-15T06:11:39.248Z,4.23
2019-01-15T06:14:09.071Z,3.73
2019-01-15T06:16:38.897Z,3.87
2019-01-15T06:19:08.622Z,5.27
2019-01-15T06:21:38.370Z,4.70
2019-01-15T06:24:08.079Z,4.07
2019-01-15T06:26:37.796Z,3.50
2019-01-15T06:29:08.139Z,4.20
2019-01-15T06:31:37.869Z,4.10
2019-01-15T06:34:07.715Z,4.20
2019-01-15T06:36:37.426Z,3.60
2019-01-15T06:39:09.402Z,4.03
2019-01-15T06:41:39.146Z,4.60
2019-01-15T06:44:08.668Z,4.67
2019-01-15T06:46:38.475Z,4.10
2019-01-15T06:49:09.129Z,3.67
2019-01-15T06:51:38.956Z,3.67
2019-01-15T06:54:08.805Z,3.40
2019-01-15T06:56:38.421Z,3.00
2019-01-15T06:59:09.871Z,3.50
2019-01-15T07:01:39.587Z,3.70
2019-01-15T07:04:09.452Z,3.37
2019-01-15T07:06:39.283Z,3.80
2019-01-15T07:09:09.926Z,4.30
2019-01-15T07:11:39.752Z,3.27
2019-01-15T07:14:09.681Z,2.90
2019-01-15T07:16:39.616Z,4.03
2019-01-15T07:19:09.247Z,3.73
2019-01-15T07:21:39.181Z,3.07
2019-01-15T07:24:09.022Z,3.53
2019-01-15T07:26:38.925Z,3.43
2019-01-15T07:29:08.572Z,3.00
2019-01-15T07:31:38.263Z,3.47
2019-01-15T07:34:08.217Z,4.13
2019-01-15T07:36:37.834Z,3.23
2019-01-15T07:39:09.205Z,3.40
2019-01-15T07:41:39.024Z,3.87
2019-01-15T07:44:08.670Z,3.57
2019-01-15T07:46:38.480Z,2.87
2019-01-15T07:49:08.406Z,3.30
2019-01-15T07:51:38.150Z,3.43
2019-01-15T07:54:07.905Z,3.00
2019-01-15T07:56:38.709Z,3.73
2019-01-15T07:59:08.665Z,3.47
2019-01-15T08:01:38.562Z,3.10
2019-01-15T08:04:08.320Z,3.13
2019-01-15T08:06:38.125Z,3.20
2019-01-15T08:09:11.796Z,3.80
2019-01-15T08:11:41.886Z,2.90
2019-01-15T08:14:12.401Z,3.10
2019-01-15T08:16:42.266Z,3.30
2019-01-15T08:19:12.014Z,3.03
2019-01-15T08:21:41.907Z,2.87
2019-01-15T08:24:11.561Z,3.50
2019-01-15T08:26:41.066Z,3.40
2019-01-15T08:29:10.808Z,3.17
2019-01-15T08:31:40.638Z,2.90
2019-01-15T08:34:10.474Z,2.70
2019-01-15T08:36:40.397Z,3.07
2019-01-15T08:39:10.315Z,2.63
2019-01-15T08:41:39.953Z,2.83
2019-01-15T08:44:09.682Z,2.77
2019-01-15T08:46:39.591Z,3.33
2019-01-15T08:49:09.240Z,2.73
2019-01-15T08:51:39.556Z,3.13
2019-01-15T08:54:10.117Z,2.90
2019-01-15T08:56:39.955Z,3.20
2019-01-15T08:59:09.874Z,2.90
2019-01-15T09:01:39.709Z,2.97
2019-01-15T09:04:09.446Z,3.10
2019-01-15T09:06:40.569Z,2.90
2019-01-15T09:09:10.330Z,3.50
2019-01-15T09:11:39.935Z,3.50
2019-01-15T09:14:09.775Z,3.00
2019-01-15T09:16:39.588Z,3.50
2019-01-15T09:19:09.346Z,3.30
2019-01-15T09:21:38.954Z,3.57
2019-01-15T09:24:08.888Z,3.60
2019-01-15T09:26:38.601Z,4.00
2019-01-15T09:29:08.560Z,4.67
2019-01-15T09:31:38.375Z,3.87
2019-01-15T09:34:08.113Z,4.30
2019-01-15T09:36:37.921Z,4.30
2019-01-15T09:39:09.208Z,4.53
2019-01-15T09:41:39.225Z,4.50
2019-01-15T09:44:08.956Z,4.13
2019-01-15T09:46:38.882Z,4.70
2019-01-15T09:49:08.625Z,4.73
2019-01-15T09:51:38.362Z,5.03
2019-01-15T09:54:08.186Z,5.27
2019-01-15T09:56:37.796Z,5.60
2019-01-15T09:59:07.529Z,5.83
2019-01-15T10:01:37.357Z,5.70
2019-01-15T10:04:06.873Z,5.60
2019-01-15T10:06:36.701Z,5.80
2019-01-15T10:09:09.231Z,5.57
2019-01-15T10:11:40.235Z,5.60
2019-01-15T10:14:09.682Z,7.07
2019-01-15T10:16:39.519Z,6.40
2019-01-15T10:19:09.538Z,5.80
2019-01-15T10:21:39.894Z,6.50
2019-01-15T10:24:09.389Z,6.27
2019-01-15T10:26:39.042Z,6.97
2019-01-15T10:29:08.747Z,6.90
2019-01-15T10:32:25.873Z,6.83
2019-01-15T10:34:55.793Z,7.00
2019-01-15T10:37:25.628Z,7.90
2019-01-15T10:39:55.613Z,7.80
2019-01-15T10:42:25.068Z,8.30
2019-01-15T10:44:54.810Z,7.67
2019-01-15T10:47:24.660Z,8.40
2019-01-15T10:49:54.560Z,8.53
2019-01-15T10:52:24.393Z,8.53
2019-01-15T10:54:54.212Z,8.50
2019-01-15T10:57:23.950Z,8.70
2019-01-15T10:59:53.867Z,8.90
2019-01-15T11:02:23.616Z,9.03
2019-01-15T11:04:53.129Z,8.93
2019-01-15T11:07:22.764Z,9.07
2019-01-15T11:09:54.194Z,9.40
2019-01-15T11:12:23.857Z,9.27
2019-01-15T11:14:56.304Z,10.87
2019-01-15T11:17:25.261Z,9.43
2019-01-15T11:19:54.961Z,10.40
2019-01-15T11:22:24.816Z,11.00
2019-01-15T11:24:54.639Z,10.53
2019-01-15T11:27:24.575Z,10.40
2019-01-15T11:29:54.386Z,10.53
2019-01-15T11:32:25.355Z,10.90
2019-01-15T11:34:54.860Z,11.47
2019-01-15T11:37:24.609Z,11.70
2019-01-15T11:39:54.325Z,13.70
2019-01-15T11:42:24.154Z,12.30
2019-01-15T11:44:53.876Z,12.00
2019-01-15T11:47:23.625Z,12.00
2019-01-15T11:49:53.436Z,12.90
2019-01-15T11:52:23.276Z,13.00
2019-01-15T11:54:53.090Z,13.40
2019-01-15T11:57:22.821Z,12.93
2019-01-15T11:59:52.551Z,12.93
2019-01-15T12:02:36.961Z,13.60
2019-01-15T12:05:24.774Z,13.70
2019-01-15T12:08:14.266Z,13.40
2019-01-15T12:11:07.173Z,13.90
2019-01-15T12:13:54.775Z,15.07
2019-01-15T12:16:43.458Z,14.77
2019-01-15T12:19:30.822Z,14.90
2019-01-15T12:22:18.267Z,15.40
2019-01-15T12:25:22.084Z,15.17
2019-01-15T12:28:13.072Z,16.53
2019-01-15T12:31:03.645Z,16.93
2019-01-15T12:33:49.036Z,15.10
2019-01-15T12:36:37.605Z,16.50
2019-01-15T12:39:30.203Z,15.97
2019-01-15T12:42:17.614Z,15.20
2019-01-15T12:45:18.218Z,15.83
2019-01-15T12:48:05.497Z,15.27
2019-01-15T12:50:45.646Z,15.53
2019-01-15T12:53:35.917Z,17.07
2019-01-15T12:56:33.289Z,17.23
2019-01-15T12:59:27.685Z,15.60
2019-01-15T13:02:15.365Z,16.20
2019-01-15T13:04:56.809Z,16.00
2019-01-15T13:08:04.015Z,14.80
2019-01-15T13:10:51.238Z,16.40
2019-01-15T13:13:42.624Z,16.47
2019-01-15T13:16:37.146Z,16.40
2019-01-15T13:19:19.966Z,16.80
2019-01-15T13:22:08.607Z,15.53
2019-01-15T13:24:57.900Z,15.83
2019-01-15T13:27:44.981Z,16.07
2019-01-15T13:30:28.477Z,16.17
2019-01-15T13:33:12.956Z,15.80
2019-01-15T13:36:16.988Z,15.97
2019-01-15T13:39:06.938Z,15.10
2019-01-15T13:42:01.733Z,15.40
2019-01-15T13:44:56.265Z,16.30
2019-01-15T13:47:44.975Z,16.50
2019-01-15T13:50:47.117Z,16.07
2019-01-15T13:53:47.818Z,16.37
2019-01-15T13:56:36.511Z,15.67
2019-01-15T13:59:43.284Z,15.47
2019-01-15T14:02:31.868Z,15.40
2019-01-15T14:05:20.421Z,15.37
2019-01-15T14:08:27.615Z,15.80
2019-01-15T14:11:21.973Z,15.63
2019-01-15T14:14:11.101Z,14.83
2019-01-15T14:16:51.665Z,15.20
2019-01-15T14:19:52.138Z,15.47
2019-01-15T14:22:39.690Z,14.67
2019-01-15T14:25:32.292Z,14.13
2019-01-15T14:28:39.320Z,15.10
2019-01-15T14:31:26.944Z,14.33
2019-01-15T14:34:21.361Z,15.13
2019-01-15T14:37:08.693Z,14.93
2019-01-15T14:40:02.436Z,15.03
2019-01-15T14:42:59.449Z,13.97
2019-01-15T14:45:46.956Z,14.60
2019-01-15T14:48:34.451Z,15.03
2019-01-15T14:51:26.088Z,14.27
2019-01-15T14:54:17.262Z,14.50
2019-01-15T14:56:55.500Z,14.50
2019-01-15T14:59:54.379Z,13.77
2019-01-15T15:02:43.030Z,13.47
2019-01-15T15:05:23.530Z,13.87
2019-01-15T15:08:22.233Z,14.43
2019-01-15T15:11:09.680Z,13.80
2019-01-15T15:13:56.902Z,13.93
2019-01-15T15:16:45.596Z,13.57
2019-01-15T15:19:33.221Z,13.33
2019-01-15T15:22:20.560Z,13.13
2019-01-15T15:25:11.945Z,13.37
2019-01-15T15:27:53.521Z,13.47
2019-01-15T15:30:40.140Z,14.00
2019-01-15T15:33:27.686Z,13.87
2019-01-15T15:36:22.088Z,13.60
2019-01-15T15:39:07.788Z,13.40
2019-01-15T15:41:56.485Z,13.20
2019-01-15T15:44:51.024Z,13.17
2019-01-15T15:47:39.428Z,13.03
2019-01-15T15:50:27.188Z,13.50
2019-01-15T15:53:17.912Z,13.73
2019-01-15T15:56:12.190Z,12.30
2019-01-15T15:58:54.398Z,13.03
2019-01-15T16:01:55.391Z,12.50
2019-01-15T16:04:53.129Z,11.97
2019-01-15T16:07:36.538Z,10.97
2019-01-15T16:10:26.777Z,11.47
2019-01-15T16:13:21.171Z,11.53
2019-01-15T16:16:19.302Z,12.23
2019-01-15T16:19:06.973Z,11.43
2019-01-15T16:21:59.768Z,11.47
2019-01-15T16:24:53.514Z,12.03
2019-01-15T16:27:41.168Z,11.60
2019-01-15T16:30:26.123Z,11.70
2019-01-15T16:33:13.703Z,11.07
2019-01-15T16:35:53.930Z,11.70
2019-01-15T16:38:45.263Z,10.90
2019-01-15T16:41:39.854Z,11.33
2019-01-15T16:44:27.055Z,10.17
2019-01-15T16:47:09.996Z,11.90
2019-01-15T16:50:11.480Z,11.10
2019-01-15T16:53:09.401Z,11.50
2019-01-15T16:55:54.014Z,11.43
2019-01-15T16:58:42.406Z,10.83
2019-01-15T17:01:27.120Z,11.13
2019-01-15T17:04:18.805Z,10.40
2019-01-15T17:07:13.173Z,10.20
2019-01-15T17:10:07.547Z,9.53
2019-01-15T17:12:54.688Z,9.93
2019-01-15T17:16:01.532Z,9.23
2019-01-15T17:18:52.440Z,10.10
2019-01-15T17:21:39.851Z,10.27
2019-01-15T17:24:28.288Z,8.93
2019-01-15T17:27:35.041Z,10.17
2019-01-15T17:30:24.033Z,9.97
2019-01-15T17:33:16.850Z,8.50
2019-01-15T17:36:11.514Z,8.73
2019-01-15T17:39:01.654Z,9.70
2019-01-15T17:41:48.995Z,8.57
2019-01-15T17:44:34.515Z,9.07
2019-01-15T17:47:33.074Z,11.40
2019-01-15T17:50:21.165Z,11.63
2019-01-15T17:53:08.882Z,11.03
2019-01-15T17:55:56.297Z,10.90
2019-01-15T17:58:44.682Z,11.30
2019-01-15T18:01:33.441Z,10.90
2019-01-15T18:04:20.735Z,11.07
2019-01-15T18:07:15.797Z,11.27
2019-01-15T18:09:59.127Z,11.67
2019-01-15T18:13:01.902Z,12.00
2019-01-15T18:15:46.694Z,10.70
2019-01-15T18:18:35.350Z,10.77
2019-01-15T18:21:22.356Z,11.33
2019-01-15T18:24:03.465Z,10.33
2019-01-15T18:26:50.671Z,10.77
2019-01-15T18:29:48.555Z,10.63
2019-01-15T18:32:36.994Z,10.57
2019-01-15T18:35:26.237Z,12.00
2019-01-15T18:38:20.726Z,11.83
2019-01-15T18:41:13.130Z,11.97
2019-01-15T18:43:53.210Z,10.70
2019-01-15T18:46:37.971Z,10.37
2019-01-15T18:49:34.809Z,10.27
2019-01-15T18:52:38.874Z,10.10
2019-01-15T18:55:26.472Z,10.57
2019-01-15T18:58:15.349Z,10.73
2019-01-15T19:01:10.209Z,9.60
2019-01-15T19:03:49.008Z,10.33
2019-01-15T19:06:37.420Z,10.33
2019-01-15T19:09:23.428Z,9.27
2019-01-15T19:12:12.025Z,10.30
2019-01-15T19:15:19.174Z,8.93
2019-01-15T19:18:07.851Z,10.43
2019-01-15T19:20:56.474Z,9.60
2019-01-15T19:23:44.025Z,9.23
2019-01-15T19:26:32.748Z,8.80
2019-01-15T19:29:21.493Z,9.50
2019-01-15T19:32:08.714Z,8.70
2019-01-15T19:34:56.214Z,7.87
2019-01-15T19:37:43.849Z,8.63
2019-01-15T19:40:31.102Z,8.53
2019-01-15T19:43:15.671Z,7.67
2019-01-15T19:46:13.406Z,8.87
2019-01-15T19:49:17.417Z,8.23
2019-01-15T19:52:08.935Z,7.90
2019-01-15T19:55:03.143Z,8.10
2019-01-15T19:57:57.869Z,8.40
2019-01-15T20:01:01.391Z,8.60
2019-01-15T20:03:49.941Z,8.10
2019-01-15T20:06:31.877Z,8.33
2019-01-15T20:09:15.113Z,8.10
2019-01-15T20:12:02.787Z,8.20
2019-01-15T20:14:54.387Z,8.13
2019-01-15T20:17:42.813Z,8.10
2019-01-15T20:20:20.789Z,7.57
2019-01-15T20:23:18.339Z,7.67
2019-01-15T20:26:07.028Z,8.00
2019-01-15T20:28:51.981Z,7.70
2019-01-15T20:31:52.754Z,8.33
2019-01-15T20:34:44.380Z,8.53
2019-01-15T20:37:31.953Z,7.63
2019-01-15T20:40:32.586Z,8.23
2019-01-15T20:43:20.209Z,8.43
2019-01-15T20:46:21.128Z,7.90
2019-01-15T20:49:12.477Z,7.70
2019-01-15T20:52:01.098Z,7.67
2019-01-15T20:54:35.999Z,7.77
2019-01-15T20:57:23.436Z,7.80
2019-01-15T21:00:12.417Z,9.33
2019-01-15T21:02:59.794Z,8.40
2019-01-15T21:05:47.039Z,8.70
2019-01-15T21:08:35.350Z,8.87
2019-01-15T21:11:26.624Z,9.10
2019-01-15T21:14:14.080Z,8.67
2019-01-15T21:17:14.715Z,8.37
2019-01-15T21:20:15.209Z,8.97
2019-01-15T21:23:05.237Z,8.53
2019-01-15T21:26:00.262Z,8.63
2019-01-15T21:28:57.916Z,8.50
2019-01-15T21:31:49.513Z,7.90
2019-01-15T21:34:37.015Z,8.07
2019-01-15T21:37:34.774Z,7.13
2019-01-15T21:40:23.340Z,7.47
2019-01-15T21:43:20.972Z,8.10
2019-01-15T21:46:09.562Z,39.87
2019-01-15T21:48:56.713Z,25.77
2019-01-15T21:51:44.256Z,21.67
2019-01-15T21:54:31.993Z,21.17
2019-01-15T21:57:15.736Z,20.20
2019-01-15T22:00:03.039Z,19.00
2019-01-15T22:02:40.882Z,19.80
2019-01-15T22:05:25.345Z,18.70
2019-01-15T22:08:13.682Z,19.03
2019-01-15T22:11:17.561Z,18.43
2019-01-15T22:14:09.271Z,19.07
2019-01-15T22:16:56.624Z,17.80
2019-01-15T22:19:54.668Z,17.43
2019-01-15T22:22:38.400Z,17.03
2019-01-15T22:25:26.624Z,15.93
2019-01-15T22:28:14.107Z,17.17
2019-01-15T22:31:01.561Z,17.53
2019-01-15T22:33:50.224Z,16.87
2019-01-15T22:36:50.782Z,16.43
2019-01-15T22:39:31.799Z,15.93
2019-01-15T22:42:20.248Z,16.20
2019-01-15T22:45:17.816Z,15.73
2019-01-15T22:48:05.243Z,15.83
2019-01-15T22:51:09.991Z,16.13
2019-01-15T22:53:58.102Z,15.90
2019-01-15T22:56:35.095Z,14.93
2019-01-15T22:59:26.687Z,15.10
2019-01-15T23:02:30.308Z,14.70
2019-01-15T23:05:18.973Z,14.30
2019-01-15T23:08:19.952Z,15.53
2019-01-15T23:11:11.661Z,13.97
2019-01-15T23:14:04.225Z,13.80
2019-01-15T23:16:42.859Z,14.90
2019-01-15T23:19:31.472Z,14.37
2019-01-15T23:22:20.147Z,15.27
2019-01-15T23:25:00.178Z,14.77
2019-01-15T23:27:40.820Z,14.30
2019-01-15T23:30:31.068Z,13.43
2019-01-15T23:33:37.882Z,14.60
2019-01-15T23:36:31.457Z,14.23
2019-01-15T23:39:20.557Z,12.90
2019-01-15T23:42:12.020Z,13.37
2019-01-15T23:44:52.679Z,13.83
2019-01-15T23:47:53.289Z,13.27
2019-01-15T23:50:44.853Z,13.40
2019-01-15T23:53:32.186Z,13.40
2019-01-15T23:56:19.592Z,13.20
2019-01-15T23:59:26.537Z,13.30
